TimeCST,TemperatureF,Dew PointF,Humidity,Sea Level PressureIn,VisibilityMPH,Wind Direction,Wind SpeedMPH,Gust SpeedMPH,PrecipitationIn,Events,Conditions,WindDirDegrees,DateUTC
12:12 AM,-4.0,-9.4,78,30.36,10.0,NW,8.1,-,N/A,,Clear,320,2013-02-20 06:12:00
12:33 AM,-4.0,-9.4,78,30.36,10.0,NNW,10.4,-,N/A,,Clear,330,2013-02-20 06:33:00
12:53 AM,-4.0,-9.4,78,30.36,10.0,NW,9.2,-,N/A,,Clear,320,2013-02-20 06:53:00
1:12 AM,-4.0,-9.4,78,30.37,10.0,NW,9.2,-,N/A,,Clear,320,2013-02-20 07:12:00
1:33 AM,-4.0,-9.4,78,30.36,10.0,NW,9.2,-,N/A,,Clear,320,2013-02-20 07:33:00
1:53 AM,-4.0,-9.4,78,30.36,10.0,NNW,10.4,-,N/A,,Clear,330,2013-02-20 07:53:00
2:12 AM,-4.0,-9.4,78,30.38,10.0,WNW,4.6,-,N/A,,Clear,300,2013-02-20 08:12:00
2:33 AM,-4.0,-9.4,78,30.37,10.0,NNW,9.2,-,N/A,,Clear,330,2013-02-20 08:33:00
3:33 AM,-4.0,-11.2,71,30.36,10.0,NNW,6.9,-,N/A,,Clear,340,2013-02-20 09:33:00
3:53 AM,-4.0,-11.2,71,30.36,10.0,North,4.6,-,N/A,,Clear,350,2013-02-20 09:53:00
4:12 AM,-4.0,-11.2,71,30.36,10.0,NNW,5.8,-,N/A,,Clear,330,2013-02-20 10:12:00
4:33 AM,-4.0,-11.2,71,30.36,10.0,North,4.6,-,N/A,,Clear,350,2013-02-20 10:33:00
4:52 AM,-4.0,-11.2,71,30.36,10.0,North,3.5,-,N/A,,Clear,350,2013-02-20 10:52:00
5:12 AM,-5.8,-11.2,77,30.36,10.0,North,3.5,-,N/A,,Clear,350,2013-02-20 11:12:00
5:33 AM,-4.0,-9.4,78,30.35,10.0,North,8.1,-,N/A,,Clear,10,2013-02-20 11:33:00
5:52 AM,-4.0,-9.4,78,30.35,10.0,North,6.9,-,N/A,,Clear,10,2013-02-20 11:52:00
6:13 AM,-4.0,-11.2,71,30.36,10.0,North,5.8,-,N/A,,Clear,10,2013-02-20 12:13:00
6:33 AM,-4.0,-9.4,78,30.35,10.0,North,8.1,-,N/A,,Clear,10,2013-02-20 12:33:00
6:52 AM,-4.0,-11.2,71,30.35,10.0,North,3.5,-,N/A,,Clear,350,2013-02-20 12:52:00
7:13 AM,-4.0,-11.2,71,30.35,10.0,North,3.5,-,N/A,,Clear,350,2013-02-20 13:13:00
7:32 AM,-4.0,-11.2,71,30.35,10.0,North,5.8,-,N/A,,Clear,10,2013-02-20 13:32:00
7:53 AM,-4.0,-9.4,78,30.36,10.0,NNW,3.5,-,N/A,,Clear,340,2013-02-20 13:53:00
8:13 AM,-4.0,-9.4,78,30.36,10.0,North,3.5,-,N/A,,Clear,350,2013-02-20 14:13:00
8:32 AM,-2.2,-9.4,71,30.37,10.0,Calm,Calm,-,N/A,,Clear,0,2013-02-20 14:32:00
8:53 AM,-0.4,-7.6,72,30.37,10.0,North,3.5,-,N/A,,Clear,0,2013-02-20 14:53:00
9:13 AM,-0.4,-7.6,72,30.38,10.0,Calm,Calm,-,N/A,,Clear,0,2013-02-20 15:13:00
9:32 AM,-0.4,-7.6,72,30.38,10.0,Calm,Calm,-,N/A,,Clear,0,2013-02-20 15:32:00
9:53 AM,1.4,-5.8,72,30.39,10.0,ENE,3.5,-,N/A,,Clear,60,2013-02-20 15:53:00
10:13 AM,3.2,-5.8,66,30.38,10.0,NE,6.9,-,N/A,,Clear,40,2013-02-20 16:13:00
10:33 AM,5.0,-4.0,66,30.38,10.0,ENE,8.1,-,N/A,,Clear,70,2013-02-20 16:33:00
10:52 AM,5.0,-4.0,66,30.37,10.0,East,6.9,-,N/A,,Clear,90,2013-02-20 16:52:00
11:13 AM,6.8,-2.2,67,30.37,10.0,East,8.1,-,N/A,,Clear,80,2013-02-20 17:13:00
11:33 AM,8.6,-0.4,67,30.36,10.0,ENE,9.2,-,N/A,,Clear,60,2013-02-20 17:33:00
11:52 AM,8.6,-0.4,67,30.37,10.0,East,6.9,-,N/A,,Clear,90,2013-02-20 17:52:00
12:13 PM,10.4,1.4,67,30.37,10.0,ENE,8.1,-,N/A,,Clear,70,2013-02-20 18:13:00
12:33 PM,12.2,1.4,62,30.37,10.0,East,4.6,-,N/A,,Clear,100,2013-02-20 18:33:00
12:52 PM,12.2,1.4,62,30.37,10.0,ESE,5.8,-,N/A,,Clear,120,2013-02-20 18:52:00
1:13 PM,14.0,3.2,62,30.36,10.0,ESE,5.8,-,N/A,,Clear,120,2013-02-20 19:13:00
1:33 PM,14.0,3.2,62,30.35,10.0,ESE,6.9,-,N/A,,Clear,110,2013-02-20 19:33:00
1:52 PM,15.8,3.2,58,30.34,10.0,ESE,5.8,-,N/A,,Clear,120,2013-02-20 19:52:00
2:13 PM,17.6,3.2,53,30.33,10.0,East,6.9,-,N/A,,Clear,100,2013-02-20 20:13:00
2:32 PM,17.6,5.0,58,30.32,10.0,East,8.1,-,N/A,,Clear,80,2013-02-20 20:32:00
2:53 PM,17.6,5.0,58,30.32,10.0,ENE,6.9,-,N/A,,Clear,70,2013-02-20 20:53:00
3:12 PM,17.6,5.0,58,30.31,10.0,East,9.2,-,N/A,,Clear,80,2013-02-20 21:12:00
3:32 PM,17.6,6.8,63,30.31,10.0,East,6.9,-,N/A,,Clear,80,2013-02-20 21:32:00
3:53 PM,19.4,6.8,58,30.31,10.0,East,6.9,-,N/A,,Clear,80,2013-02-20 21:53:00
4:12 PM,17.6,6.8,63,30.31,10.0,East,9.2,-,N/A,,Clear,80,2013-02-20 22:12:00
4:32 PM,17.6,6.8,63,30.32,10.0,ENE,6.9,-,N/A,,Clear,70,2013-02-20 22:32:00
4:53 PM,17.6,8.6,68,30.32,10.0,East,6.9,-,N/A,,Clear,90,2013-02-20 22:53:00
5:12 PM,17.6,8.6,68,30.32,10.0,East,6.9,-,N/A,,Clear,90,2013-02-20 23:12:00
5:32 PM,17.6,8.6,68,30.31,10.0,East,8.1,-,N/A,,Clear,90,2013-02-20 23:32:00
5:53 PM,17.6,8.6,68,30.30,10.0,East,8.1,-,N/A,,Clear,80,2013-02-20 23:53:00
6:12 PM,17.6,8.6,68,30.30,10.0,ENE,6.9,-,N/A,,Clear,70,2013-02-21 00:12:00
6:32 PM,15.8,8.6,73,30.29,10.0,ENE,9.2,-,N/A,,Clear,70,2013-02-21 00:32:00
6:53 PM,15.8,8.6,73,30.29,10.0,ENE,10.4,-,N/A,,Clear,60,2013-02-21 00:53:00
7:13 PM,14.0,8.6,79,30.28,10.0,ENE,10.4,-,N/A,,Clear,60,2013-02-21 01:13:00
7:32 PM,14.0,8.6,79,30.28,10.0,ENE,12.7,-,N/A,,Clear,60,2013-02-21 01:32:00
7:53 PM,14.0,8.6,79,30.28,10.0,ENE,11.5,-,N/A,,Clear,60,2013-02-21 01:53:00
8:13 PM,14.0,8.6,79,30.29,10.0,ENE,10.4,-,N/A,,Clear,60,2013-02-21 02:13:00
8:32 PM,12.2,6.8,79,30.29,10.0,ENE,9.2,-,N/A,,Clear,70,2013-02-21 02:32:00
8:53 PM,12.2,6.8,79,30.29,10.0,ENE,8.1,-,N/A,,Clear,70,2013-02-21 02:53:00
9:12 PM,12.2,5.0,73,30.29,10.0,ENE,8.1,-,N/A,,Clear,70,2013-02-21 03:12:00
9:33 PM,12.2,5.0,73,30.29,10.0,ENE,9.2,-,N/A,,Scattered Clouds,70,2013-02-21 03:33:00
9:53 PM,12.2,5.0,73,30.30,10.0,East,6.9,-,N/A,,Scattered Clouds,80,2013-02-21 03:53:00
10:12 PM,12.2,5.0,73,30.29,10.0,East,9.2,-,N/A,,Scattered Clouds,80,2013-02-21 04:12:00
10:33 PM,12.2,5.0,73,30.29,10.0,East,9.2,-,N/A,,Clear,80,2013-02-21 04:33:00
10:52 PM,12.2,5.0,73,30.29,10.0,East,9.2,-,N/A,,Clear,80,2013-02-21 04:52:00
11:13 PM,12.2,5.0,73,30.28,10.0,East,10.4,-,N/A,,Clear,80,2013-02-21 05:13:00
11:33 PM,12.2,5.0,73,30.28,10.0,East,8.1,-,N/A,,Clear,80,2013-02-21 05:33:00
11:52 PM,10.4,5.0,79,30.28,10.0,East,6.9,-,N/A,,Scattered Clouds,90,2013-02-21 05:52:00